sensor_id;sensor_type;location;lat;lon;timestamp;P1;durP1;ratioP1;P2;durP2;ratioP2
64188;SDS011;50493;50.970;10.082;2022-10-16T00:01:03;1.88;;;1.23;;
64188;SDS011;50493;50.970;10.082;2022-10-16T00:03:30;1.55;;;1.20;;
64188;SDS011;50493;50.970;10.082;2022-10-16T00:05:58;2.35;;;1.20;;
64188;SDS011;50493;50.970;10.082;2022-10-16T00:08:24;1.55;;;1.20;;
64188;SDS011;50493;50.970;10.082;2022-10-16T00:10:49;2.03;;;1.27;;
64188;SDS011;50493;50.970;10.082;2022-10-16T00:13:16;1.90;;;1.27;;
64188;SDS011;50493;50.970;10.082;2022-10-16T00:15:43;1.45;;;1.08;;
64188;SDS011;50493;50.970;10.082;2022-10-16T00:18:09;2.00;;;1.20;;
64188;SDS011;50493;50.970;10.082;2022-10-16T00:20:35;2.15;;;1.23;;
64188;SDS011;50493;50.970;10.082;2022-10-16T00:23:02;2.38;;;1.63;;
64188;SDS011;50493;50.970;10.082;2022-10-16T00:25:28;5.28;;;2.60;;
64188;SDS011;50493;50.970;10.082;2022-10-16T00:27:53;2.15;;;1.30;;
64188;SDS011;50493;50.970;10.082;2022-10-16T00:30:20;1.60;;;1.30;;
64188;SDS011;50493;50.970;10.082;2022-10-16T00:32:46;3.67;;;1.67;;
64188;SDS011;50493;50.970;10.082;2022-10-16T00:35:11;3.08;;;1.80;;
64188;SDS011;50493;50.970;10.082;2022-10-16T00:37:37;2.60;;;1.23;;
64188;SDS011;50493;50.970;10.082;2022-10-16T00:40:02;2.03;;;1.42;;
64188;SDS011;50493;50.970;10.082;2022-10-16T00:42:28;3.88;;;1.77;;
64188;SDS011;50493;50.970;10.082;2022-10-16T00:44:55;1.98;;;1.20;;
64188;SDS011;50493;50.970;10.082;2022-10-16T00:47:24;1.90;;;1.48;;
64188;SDS011;50493;50.970;10.082;2022-10-16T00:49:54;2.47;;;1.50;;
64188;SDS011;50493;50.970;10.082;2022-10-16T00:52:24;3.08;;;1.48;;
64188;SDS011;50493;50.970;10.082;2022-10-16T00:54:49;2.05;;;1.25;;
64188;SDS011;50493;50.970;10.082;2022-10-16T00:57:17;1.70;;;1.10;;
64188;SDS011;50493;50.970;10.082;2022-10-16T00:59:43;2.40;;;1.15;;
64188;SDS011;50493;50.970;10.082;2022-10-16T01:02:10;2.22;;;1.45;;
64188;SDS011;50493;50.970;10.082;2022-10-16T01:04:38;1.77;;;1.20;;
64188;SDS011;50493;50.970;10.082;2022-10-16T01:07:09;2.05;;;1.30;;
64188;SDS011;50493;50.970;10.082;2022-10-16T01:09:41;3.33;;;2.03;;
64188;SDS011;50493;50.970;10.082;2022-10-16T01:12:17;2.00;;;1.25;;
64188;SDS011;50493;50.970;10.082;2022-10-16T01:14:48;2.88;;;1.40;;
64188;SDS011;50493;50.970;10.082;2022-10-16T01:17:22;3.95;;;1.90;;
64188;SDS011;50493;50.970;10.082;2022-10-16T01:20:00;2.40;;;1.27;;
64188;SDS011;50493;50.970;10.082;2022-10-16T01:22:33;1.77;;;1.35;;
64188;SDS011;50493;50.970;10.082;2022-10-16T01:25:04;1.77;;;1.30;;
64188;SDS011;50493;50.970;10.082;2022-10-16T01:27:37;2.63;;;1.40;;
64188;SDS011;50493;50.970;10.082;2022-10-16T01:30:07;2.28;;;1.30;;
64188;SDS011;50493;50.970;10.082;2022-10-16T01:32:39;2.55;;;1.92;;
64188;SDS011;50493;50.970;10.082;2022-10-16T01:35:09;1.85;;;1.60;;
64188;SDS011;50493;50.970;10.082;2022-10-16T01:37:40;2.08;;;1.40;;
64188;SDS011;50493;50.970;10.082;2022-10-16T01:40:11;4.88;;;2.55;;
64188;SDS011;50493;50.970;10.082;2022-10-16T01:42:42;6.00;;;4.53;;
64188;SDS011;50493;50.970;10.082;2022-10-16T01:45:11;4.57;;;3.28;;
64188;SDS011;50493;50.970;10.082;2022-10-16T01:47:40;2.22;;;1.50;;
64188;SDS011;50493;50.970;10.082;2022-10-16T01:50:07;4.25;;;1.90;;
64188;SDS011;50493;50.970;10.082;2022-10-16T01:52:34;2.05;;;1.45;;
64188;SDS011;50493;50.970;10.082;2022-10-16T01:55:02;2.33;;;1.90;;
64188;SDS011;50493;50.970;10.082;2022-10-16T01:57:31;2.33;;;1.70;;
64188;SDS011;50493;50.970;10.082;2022-10-16T02:00:03;3.78;;;2.17;;
64188;SDS011;50493;50.970;10.082;2022-10-16T02:02:32;5.57;;;1.80;;
64188;SDS011;50493;50.970;10.082;2022-10-16T02:04:59;1.50;;;1.20;;
64188;SDS011;50493;50.970;10.082;2022-10-16T02:07:29;2.05;;;1.50;;
64188;SDS011;50493;50.970;10.082;2022-10-16T02:09:55;5.10;;;1.50;;
64188;SDS011;50493;50.970;10.082;2022-10-16T02:12:23;1.70;;;1.30;;
64188;SDS011;50493;50.970;10.082;2022-10-16T02:14:51;4.00;;;1.55;;
64188;SDS011;50493;50.970;10.082;2022-10-16T02:17:19;2.58;;;1.40;;
64188;SDS011;50493;50.970;10.082;2022-10-16T02:19:46;2.80;;;1.40;;
64188;SDS011;50493;50.970;10.082;2022-10-16T02:22:15;1.52;;;1.30;;
64188;SDS011;50493;50.970;10.082;2022-10-16T02:24:49;3.15;;;1.70;;
64188;SDS011;50493;50.970;10.082;2022-10-16T02:27:19;3.17;;;2.03;;
64188;SDS011;50493;50.970;10.082;2022-10-16T02:29:51;4.25;;;2.05;;
64188;SDS011;50493;50.970;10.082;2022-10-16T02:32:27;2.17;;;1.55;;
64188;SDS011;50493;50.970;10.082;2022-10-16T02:34:55;1.92;;;1.60;;
64188;SDS011;50493;50.970;10.082;2022-10-16T02:37:22;2.10;;;1.50;;
64188;SDS011;50493;50.970;10.082;2022-10-16T02:39:49;2.50;;;1.50;;
64188;SDS011;50493;50.970;10.082;2022-10-16T02:42:17;3.25;;;1.80;;
64188;SDS011;50493;50.970;10.082;2022-10-16T02:44:42;5.20;;;2.30;;
64188;SDS011;50493;50.970;10.082;2022-10-16T02:47:08;2.90;;;2.05;;
64188;SDS011;50493;50.970;10.082;2022-10-16T02:49:35;2.38;;;1.65;;
64188;SDS011;50493;50.970;10.082;2022-10-16T02:52:00;3.55;;;2.08;;
64188;SDS011;50493;50.970;10.082;2022-10-16T02:54:25;2.47;;;1.40;;
64188;SDS011;50493;50.970;10.082;2022-10-16T02:56:51;3.33;;;2.28;;
64188;SDS011;50493;50.970;10.082;2022-10-16T02:59:16;3.13;;;1.80;;
64188;SDS011;50493;50.970;10.082;2022-10-16T03:01:42;2.40;;;1.50;;
64188;SDS011;50493;50.970;10.082;2022-10-16T03:04:07;3.10;;;1.98;;
64188;SDS011;50493;50.970;10.082;2022-10-16T03:06:34;4.45;;;1.98;;
64188;SDS011;50493;50.970;10.082;2022-10-16T03:09:00;2.67;;;1.50;;
64188;SDS011;50493;50.970;10.082;2022-10-16T03:11:26;1.77;;;1.55;;
64188;SDS011;50493;50.970;10.082;2022-10-16T03:13:51;1.70;;;1.30;;
64188;SDS011;50493;50.970;10.082;2022-10-16T03:16:17;3.10;;;2.10;;
64188;SDS011;50493;50.970;10.082;2022-10-16T03:18:42;2.42;;;1.95;;
64188;SDS011;50493;50.970;10.082;2022-10-16T03:21:08;2.00;;;1.40;;
64188;SDS011;50493;50.970;10.082;2022-10-16T03:23:34;2.25;;;1.55;;
64188;SDS011;50493;50.970;10.082;2022-10-16T03:26:00;2.47;;;1.40;;
64188;SDS011;50493;50.970;10.082;2022-10-16T03:28:25;4.18;;;2.20;;
64188;SDS011;50493;50.970;10.082;2022-10-16T03:30:51;2.45;;;1.63;;
64188;SDS011;50493;50.970;10.082;2022-10-16T03:33:16;3.00;;;2.20;;
64188;SDS011;50493;50.970;10.082;2022-10-16T03:35:42;1.83;;;1.50;;
64188;SDS011;50493;50.970;10.082;2022-10-16T03:38:07;1.98;;;1.42;;
64188;SDS011;50493;50.970;10.082;2022-10-16T03:40:34;1.98;;;1.40;;
64188;SDS011;50493;50.970;10.082;2022-10-16T03:42:59;2.88;;;2.20;;
64188;SDS011;50493;50.970;10.082;2022-10-16T03:45:25;3.33;;;2.65;;
64188;SDS011;50493;50.970;10.082;2022-10-16T03:47:51;1.35;;;1.20;;
64188;SDS011;50493;50.970;10.082;2022-10-16T03:50:17;2.47;;;1.40;;
64188;SDS011;50493;50.970;10.082;2022-10-16T03:52:42;1.98;;;1.58;;
64188;SDS011;50493;50.970;10.082;2022-10-16T03:55:08;1.65;;;1.25;;
64188;SDS011;50493;50.970;10.082;2022-10-16T03:57:35;2.00;;;1.40;;
64188;SDS011;50493;50.970;10.082;2022-10-16T04:00:00;3.15;;;1.80;;
64188;SDS011;50493;50.970;10.082;2022-10-16T04:02:26;4.80;;;3.20;;
64188;SDS011;50493;50.970;10.082;2022-10-16T04:04:51;3.53;;;2.53;;
64188;SDS011;50493;50.970;10.082;2022-10-16T04:07:17;2.90;;;1.70;;
64188;SDS011;50493;50.970;10.082;2022-10-16T04:09:43;2.25;;;1.50;;
64188;SDS011;50493;50.970;10.082;2022-10-16T04:12:08;2.10;;;1.60;;
64188;SDS011;50493;50.970;10.082;2022-10-16T04:14:35;2.88;;;2.20;;
64188;SDS011;50493;50.970;10.082;2022-10-16T04:17:00;1.67;;;1.20;;
64188;SDS011;50493;50.970;10.082;2022-10-16T04:19:26;1.77;;;1.33;;
64188;SDS011;50493;50.970;10.082;2022-10-16T04:21:51;1.40;;;1.30;;
64188;SDS011;50493;50.970;10.082;2022-10-16T04:24:17;2.05;;;1.40;;
64188;SDS011;50493;50.970;10.082;2022-10-16T04:26:42;1.50;;;1.20;;
64188;SDS011;50493;50.970;10.082;2022-10-16T04:29:07;1.50;;;1.33;;
64188;SDS011;50493;50.970;10.082;2022-10-16T04:31:34;1.55;;;1.30;;
64188;SDS011;50493;50.970;10.082;2022-10-16T04:34:00;2.13;;;1.70;;
64188;SDS011;50493;50.970;10.082;2022-10-16T04:36:25;2.00;;;1.65;;
64188;SDS011;50493;50.970;10.082;2022-10-16T04:38:50;2.15;;;1.58;;
64188;SDS011;50493;50.970;10.082;2022-10-16T04:41:16;1.67;;;1.33;;
64188;SDS011;50493;50.970;10.082;2022-10-16T04:43:41;2.42;;;1.90;;
64188;SDS011;50493;50.970;10.082;2022-10-16T04:46:06;2.90;;;1.63;;
64188;SDS011;50493;50.970;10.082;2022-10-16T04:48:33;3.22;;;1.75;;
64188;SDS011;50493;50.970;10.082;2022-10-16T04:50:59;2.42;;;1.40;;
64188;SDS011;50493;50.970;10.082;2022-10-16T04:53:24;1.42;;;1.20;;
64188;SDS011;50493;50.970;10.082;2022-10-16T04:55:50;3.80;;;1.30;;
64188;SDS011;50493;50.970;10.082;2022-10-16T04:58:15;1.88;;;1.25;;
64188;SDS011;50493;50.970;10.082;2022-10-16T05:00:41;1.73;;;1.30;;
64188;SDS011;50493;50.970;10.082;2022-10-16T05:03:06;2.00;;;1.30;;
64188;SDS011;50493;50.970;10.082;2022-10-16T05:05:35;1.90;;;1.40;;
64188;SDS011;50493;50.970;10.082;2022-10-16T05:08:01;5.03;;;3.00;;
64188;SDS011;50493;50.970;10.082;2022-10-16T05:10:27;6.93;;;3.63;;
64188;SDS011;50493;50.970;10.082;2022-10-16T05:12:53;2.70;;;2.00;;
64188;SDS011;50493;50.970;10.082;2022-10-16T05:15:18;4.28;;;2.88;;
64188;SDS011;50493;50.970;10.082;2022-10-16T05:17:44;3.72;;;2.28;;
64188;SDS011;50493;50.970;10.082;2022-10-16T05:20:09;2.28;;;1.60;;
64188;SDS011;50493;50.970;10.082;2022-10-16T05:22:36;1.90;;;1.60;;
64188;SDS011;50493;50.970;10.082;2022-10-16T05:25:01;2.22;;;1.60;;
64188;SDS011;50493;50.970;10.082;2022-10-16T05:27:27;2.25;;;1.55;;
64188;SDS011;50493;50.970;10.082;2022-10-16T05:29:52;2.10;;;1.58;;
64188;SDS011;50493;50.970;10.082;2022-10-16T05:32:18;2.20;;;1.48;;
64188;SDS011;50493;50.970;10.082;2022-10-16T05:34:44;1.50;;;1.40;;
64188;SDS011;50493;50.970;10.082;2022-10-16T05:37:09;2.63;;;1.77;;
64188;SDS011;50493;50.970;10.082;2022-10-16T05:39:38;3.75;;;2.45;;
64188;SDS011;50493;50.970;10.082;2022-10-16T05:42:04;3.03;;;2.20;;
64188;SDS011;50493;50.970;10.082;2022-10-16T05:44:29;6.65;;;4.13;;
64188;SDS011;50493;50.970;10.082;2022-10-16T05:46:55;6.90;;;3.60;;
64188;SDS011;50493;50.970;10.082;2022-10-16T05:49:20;3.22;;;2.20;;
64188;SDS011;50493;50.970;10.082;2022-10-16T05:51:45;2.53;;;1.60;;
64188;SDS011;50493;50.970;10.082;2022-10-16T05:54:11;2.30;;;1.67;;
64188;SDS011;50493;50.970;10.082;2022-10-16T05:56:38;2.58;;;1.63;;
64188;SDS011;50493;50.970;10.082;2022-10-16T05:59:03;5.20;;;2.63;;
64188;SDS011;50493;50.970;10.082;2022-10-16T06:01:29;2.67;;;1.80;;
64188;SDS011;50493;50.970;10.082;2022-10-16T06:03:56;2.38;;;1.80;;
64188;SDS011;50493;50.970;10.082;2022-10-16T06:06:22;2.13;;;1.65;;
64188;SDS011;50493;50.970;10.082;2022-10-16T06:08:50;2.17;;;1.50;;
64188;SDS011;50493;50.970;10.082;2022-10-16T06:11:17;1.90;;;1.52;;
64188;SDS011;50493;50.970;10.082;2022-10-16T06:13:48;2.42;;;1.90;;
64188;SDS011;50493;50.970;10.082;2022-10-16T06:16:14;4.38;;;3.35;;
64188;SDS011;50493;50.970;10.082;2022-10-16T06:18:39;4.10;;;1.98;;
64188;SDS011;50493;50.970;10.082;2022-10-16T06:21:07;2.55;;;1.80;;
64188;SDS011;50493;50.970;10.082;2022-10-16T06:23:33;2.55;;;1.63;;
64188;SDS011;50493;50.970;10.082;2022-10-16T06:26:04;4.07;;;2.67;;
64188;SDS011;50493;50.970;10.082;2022-10-16T06:28:30;3.75;;;1.77;;
64188;SDS011;50493;50.970;10.082;2022-10-16T06:30:59;3.38;;;2.10;;
64188;SDS011;50493;50.970;10.082;2022-10-16T06:35:50;3.93;;;2.57;;
64188;SDS011;50493;50.970;10.082;2022-10-16T06:38:16;2.55;;;1.70;;
64188;SDS011;50493;50.970;10.082;2022-10-16T06:40:41;4.78;;;2.10;;
64188;SDS011;50493;50.970;10.082;2022-10-16T06:43:06;5.82;;;2.20;;
64188;SDS011;50493;50.970;10.082;2022-10-16T06:45:32;4.32;;;2.35;;
64188;SDS011;50493;50.970;10.082;2022-10-16T06:47:58;2.65;;;1.88;;
64188;SDS011;50493;50.970;10.082;2022-10-16T06:50:24;3.88;;;2.20;;
64188;SDS011;50493;50.970;10.082;2022-10-16T06:52:49;2.80;;;1.90;;
64188;SDS011;50493;50.970;10.082;2022-10-16T06:55:15;2.88;;;1.80;;
64188;SDS011;50493;50.970;10.082;2022-10-16T06:57:41;2.00;;;1.40;;
64188;SDS011;50493;50.970;10.082;2022-10-16T07:00:07;2.47;;;1.70;;
64188;SDS011;50493;50.970;10.082;2022-10-16T07:02:33;1.98;;;1.60;;
64188;SDS011;50493;50.970;10.082;2022-10-16T07:05:00;2.20;;;1.35;;
64188;SDS011;50493;50.970;10.082;2022-10-16T07:07:26;1.90;;;1.30;;
64188;SDS011;50493;50.970;10.082;2022-10-16T07:09:51;1.50;;;1.10;;
64188;SDS011;50493;50.970;10.082;2022-10-16T07:12:17;1.85;;;1.30;;
64188;SDS011;50493;50.970;10.082;2022-10-16T07:14:42;1.83;;;1.35;;
64188;SDS011;50493;50.970;10.082;2022-10-16T07:17:08;2.88;;;1.40;;
64188;SDS011;50493;50.970;10.082;2022-10-16T07:19:33;1.98;;;1.38;;
64188;SDS011;50493;50.970;10.082;2022-10-16T07:22:00;2.30;;;1.50;;
64188;SDS011;50493;50.970;10.082;2022-10-16T07:24:25;3.70;;;1.20;;
64188;SDS011;50493;50.970;10.082;2022-10-16T07:26:51;3.40;;;1.30;;
64188;SDS011;50493;50.970;10.082;2022-10-16T07:29:17;1.77;;;1.27;;
64188;SDS011;50493;50.970;10.082;2022-10-16T07:31:45;3.03;;;1.02;;
64188;SDS011;50493;50.970;10.082;2022-10-16T07:34:11;1.48;;;1.13;;
64188;SDS011;50493;50.970;10.082;2022-10-16T07:36:38;2.20;;;1.25;;
64188;SDS011;50493;50.970;10.082;2022-10-16T07:39:04;2.10;;;1.30;;
64188;SDS011;50493;50.970;10.082;2022-10-16T07:41:30;1.65;;;1.20;;
64188;SDS011;50493;50.970;10.082;2022-10-16T07:43:57;2.80;;;1.40;;
64188;SDS011;50493;50.970;10.082;2022-10-16T07:46:25;2.85;;;1.25;;
64188;SDS011;50493;50.970;10.082;2022-10-16T07:48:51;3.95;;;1.20;;
64188;SDS011;50493;50.970;10.082;2022-10-16T07:51:18;3.50;;;1.30;;
64188;SDS011;50493;50.970;10.082;2022-10-16T07:53:44;4.63;;;1.45;;
64188;SDS011;50493;50.970;10.082;2022-10-16T07:56:12;2.90;;;1.30;;
64188;SDS011;50493;50.970;10.082;2022-10-16T07:58:37;1.77;;;1.30;;
64188;SDS011;50493;50.970;10.082;2022-10-16T08:01:04;2.45;;;1.02;;
64188;SDS011;50493;50.970;10.082;2022-10-16T08:03:30;2.25;;;1.10;;
64188;SDS011;50493;50.970;10.082;2022-10-16T08:05:56;1.65;;;1.10;;
64188;SDS011;50493;50.970;10.082;2022-10-16T08:08:22;1.88;;;1.05;;
64188;SDS011;50493;50.970;10.082;2022-10-16T08:10:47;1.52;;;1.30;;
64188;SDS011;50493;50.970;10.082;2022-10-16T08:13:14;2.40;;;1.00;;
64188;SDS011;50493;50.970;10.082;2022-10-16T08:15:40;2.28;;;1.20;;
64188;SDS011;50493;50.970;10.082;2022-10-16T08:18:06;1.75;;;1.20;;
64188;SDS011;50493;50.970;10.082;2022-10-16T08:20:32;3.55;;;1.17;;
64188;SDS011;50493;50.970;10.082;2022-10-16T08:22:58;3.78;;;1.92;;
64188;SDS011;50493;50.970;10.082;2022-10-16T08:25:24;1.67;;;1.17;;
64188;SDS011;50493;50.970;10.082;2022-10-16T08:27:50;2.38;;;1.10;;
64188;SDS011;50493;50.970;10.082;2022-10-16T08:30:17;2.47;;;1.17;;
64188;SDS011;50493;50.970;10.082;2022-10-16T08:32:43;2.92;;;1.20;;
64188;SDS011;50493;50.970;10.082;2022-10-16T08:35:09;3.72;;;1.17;;
64188;SDS011;50493;50.970;10.082;2022-10-16T08:37:35;1.40;;;1.10;;
64188;SDS011;50493;50.970;10.082;2022-10-16T08:40:02;1.65;;;1.20;;
64188;SDS011;50493;50.970;10.082;2022-10-16T08:42:31;4.10;;;1.60;;
64188;SDS011;50493;50.970;10.082;2022-10-16T08:45:13;1.63;;;1.27;;
64188;SDS011;50493;50.970;10.082;2022-10-16T08:47:48;1.42;;;1.20;;
64188;SDS011;50493;50.970;10.082;2022-10-16T08:50:19;2.42;;;1.20;;
64188;SDS011;50493;50.970;10.082;2022-10-16T08:52:49;1.85;;;1.25;;
64188;SDS011;50493;50.970;10.082;2022-10-16T08:55:23;1.58;;;1.17;;
64188;SDS011;50493;50.970;10.082;2022-10-16T08:57:55;3.42;;;1.40;;
64188;SDS011;50493;50.970;10.082;2022-10-16T09:00:22;4.18;;;1.35;;
64188;SDS011;50493;50.970;10.082;2022-10-16T09:02:50;3.53;;;1.65;;
64188;SDS011;50493;50.970;10.082;2022-10-16T09:05:24;2.67;;;1.42;;
64188;SDS011;50493;50.970;10.082;2022-10-16T09:08:04;2.50;;;1.40;;
64188;SDS011;50493;50.970;10.082;2022-10-16T09:10:38;2.17;;;1.52;;
64188;SDS011;50493;50.970;10.082;2022-10-16T09:13:15;1.83;;;1.42;;
64188;SDS011;50493;50.970;10.082;2022-10-16T09:15:48;4.75;;;1.83;;
64188;SDS011;50493;50.970;10.082;2022-10-16T09:18:22;2.45;;;1.65;;
64188;SDS011;50493;50.970;10.082;2022-10-16T09:20:53;2.88;;;1.70;;
64188;SDS011;50493;50.970;10.082;2022-10-16T09:23:25;2.72;;;2.00;;
64188;SDS011;50493;50.970;10.082;2022-10-16T09:25:52;4.15;;;1.75;;
64188;SDS011;50493;50.970;10.082;2022-10-16T09:28:19;2.60;;;1.90;;
64188;SDS011;50493;50.970;10.082;2022-10-16T09:30:44;3.63;;;1.75;;
64188;SDS011;50493;50.970;10.082;2022-10-16T09:33:12;3.75;;;2.00;;
64188;SDS011;50493;50.970;10.082;2022-10-16T09:35:39;2.85;;;1.50;;
64188;SDS011;50493;50.970;10.082;2022-10-16T09:38:07;3.00;;;1.85;;
64188;SDS011;50493;50.970;10.082;2022-10-16T09:40:34;2.47;;;1.25;;
64188;SDS011;50493;50.970;10.082;2022-10-16T09:43:02;2.65;;;1.30;;
64188;SDS011;50493;50.970;10.082;2022-10-16T09:45:37;4.00;;;1.20;;
64188;SDS011;50493;50.970;10.082;2022-10-16T09:48:09;2.47;;;1.23;;
64188;SDS011;50493;50.970;10.082;2022-10-16T09:50:38;1.70;;;1.30;;
64188;SDS011;50493;50.970;10.082;2022-10-16T09:53:04;1.73;;;1.30;;
64188;SDS011;50493;50.970;10.082;2022-10-16T09:55:31;1.73;;;1.30;;
64188;SDS011;50493;50.970;10.082;2022-10-16T09:57:56;1.42;;;1.30;;
64188;SDS011;50493;50.970;10.082;2022-10-16T10:00:22;1.80;;;1.50;;
64188;SDS011;50493;50.970;10.082;2022-10-16T10:02:48;1.98;;;1.20;;
64188;SDS011;50493;50.970;10.082;2022-10-16T10:05:18;4.72;;;1.70;;
64188;SDS011;50493;50.970;10.082;2022-10-16T10:07:52;2.22;;;1.40;;
64188;SDS011;50493;50.970;10.082;2022-10-16T10:10:21;1.77;;;1.20;;
64188;SDS011;50493;50.970;10.082;2022-10-16T10:12:48;2.20;;;1.40;;
64188;SDS011;50493;50.970;10.082;2022-10-16T10:15:14;3.13;;;1.50;;
64188;SDS011;50493;50.970;10.082;2022-10-16T10:17:47;2.90;;;1.30;;
64188;SDS011;50493;50.970;10.082;2022-10-16T10:20:18;2.35;;;1.45;;
64188;SDS011;50493;50.970;10.082;2022-10-16T10:22:49;1.90;;;1.10;;
64188;SDS011;50493;50.970;10.082;2022-10-16T10:25:17;2.65;;;1.58;;
64188;SDS011;50493;50.970;10.082;2022-10-16T10:27:56;1.23;;;1.00;;
64188;SDS011;50493;50.970;10.082;2022-10-16T10:30:42;2.75;;;1.50;;
64188;SDS011;50493;50.970;10.082;2022-10-16T10:33:17;2.97;;;1.48;;
64188;SDS011;50493;50.970;10.082;2022-10-16T10:35:52;1.45;;;1.10;;
64188;SDS011;50493;50.970;10.082;2022-10-16T10:38:29;1.75;;;1.20;;
64188;SDS011;50493;50.970;10.082;2022-10-16T10:41:07;1.30;;;1.08;;
64188;SDS011;50493;50.970;10.082;2022-10-16T10:43:47;1.35;;;0.80;;
64188;SDS011;50493;50.970;10.082;2022-10-16T10:46:28;1.95;;;1.00;;
64188;SDS011;50493;50.970;10.082;2022-10-16T10:49:03;1.60;;;1.20;;
64188;SDS011;50493;50.970;10.082;2022-10-16T10:51:44;2.30;;;1.20;;
64188;SDS011;50493;50.970;10.082;2022-10-16T10:54:25;1.40;;;1.20;;
64188;SDS011;50493;50.970;10.082;2022-10-16T10:56:58;1.30;;;1.10;;
64188;SDS011;50493;50.970;10.082;2022-10-16T10:59:52;1.60;;;1.20;;
64188;SDS011;50493;50.970;10.082;2022-10-16T11:02:26;1.77;;;1.10;;
64188;SDS011;50493;50.970;10.082;2022-10-16T11:05:07;1.92;;;1.10;;
64188;SDS011;50493;50.970;10.082;2022-10-16T11:07:57;2.08;;;1.30;;
64188;SDS011;50493;50.970;10.082;2022-10-16T11:10:27;2.13;;;1.20;;
64188;SDS011;50493;50.970;10.082;2022-10-16T11:12:57;2.78;;;1.20;;
64188;SDS011;50493;50.970;10.082;2022-10-16T11:15:30;1.60;;;0.70;;
64188;SDS011;50493;50.970;10.082;2022-10-16T11:18:00;1.05;;;0.95;;
64188;SDS011;50493;50.970;10.082;2022-10-16T11:20:32;1.23;;;1.00;;
64188;SDS011;50493;50.970;10.082;2022-10-16T11:23:05;2.03;;;1.23;;
64188;SDS011;50493;50.970;10.082;2022-10-16T11:25:39;1.05;;;0.93;;
64188;SDS011;50493;50.970;10.082;2022-10-16T11:28:07;2.22;;;1.00;;
64188;SDS011;50493;50.970;10.082;2022-10-16T11:30:40;1.58;;;1.10;;
64188;SDS011;50493;50.970;10.082;2022-10-16T11:33:15;2.35;;;1.00;;
64188;SDS011;50493;50.970;10.082;2022-10-16T11:35:59;1.30;;;0.77;;
64188;SDS011;50493;50.970;10.082;2022-10-16T11:38:30;1.77;;;1.10;;
64188;SDS011;50493;50.970;10.082;2022-10-16T11:41:02;1.35;;;0.73;;
64188;SDS011;50493;50.970;10.082;2022-10-16T11:43:36;2.10;;;0.60;;
64188;SDS011;50493;50.970;10.082;2022-10-16T11:46:08;0.70;;;0.70;;
64188;SDS011;50493;50.970;10.082;2022-10-16T11:48:39;0.70;;;0.70;;
64188;SDS011;50493;50.970;10.082;2022-10-16T11:51:13;0.73;;;0.50;;
64188;SDS011;50493;50.970;10.082;2022-10-16T11:53:45;1.92;;;0.60;;
64188;SDS011;50493;50.970;10.082;2022-10-16T11:56:16;1.90;;;0.70;;
64188;SDS011;50493;50.970;10.082;2022-10-16T11:58:46;0.90;;;0.77;;
64188;SDS011;50493;50.970;10.082;2022-10-16T12:01:21;1.10;;;0.93;;
64188;SDS011;50493;50.970;10.082;2022-10-16T12:03:56;1.02;;;0.80;;
64188;SDS011;50493;50.970;10.082;2022-10-16T12:06:31;1.40;;;0.95;;
64188;SDS011;50493;50.970;10.082;2022-10-16T12:09:02;1.60;;;1.17;;
64188;SDS011;50493;50.970;10.082;2022-10-16T12:11:34;1.25;;;0.98;;
64188;SDS011;50493;50.970;10.082;2022-10-16T12:14:18;1.20;;;1.10;;
64188;SDS011;50493;50.970;10.082;2022-10-16T12:16:53;1.50;;;1.20;;
64188;SDS011;50493;50.970;10.082;2022-10-16T12:19:21;1.20;;;1.10;;
64188;SDS011;50493;50.970;10.082;2022-10-16T12:21:47;1.63;;;1.00;;
64188;SDS011;50493;50.970;10.082;2022-10-16T12:24:22;1.63;;;1.20;;
64188;SDS011;50493;50.970;10.082;2022-10-16T12:26:57;1.20;;;0.98;;
64188;SDS011;50493;50.970;10.082;2022-10-16T12:29:32;6.13;;;2.85;;
64188;SDS011;50493;50.970;10.082;2022-10-16T12:31:59;2.42;;;1.42;;
64188;SDS011;50493;50.970;10.082;2022-10-16T12:34:27;2.17;;;1.60;;
64188;SDS011;50493;50.970;10.082;2022-10-16T12:36:54;2.42;;;1.17;;
64188;SDS011;50493;50.970;10.082;2022-10-16T12:39:21;1.48;;;1.25;;
64188;SDS011;50493;50.970;10.082;2022-10-16T12:41:53;1.92;;;1.15;;
64188;SDS011;50493;50.970;10.082;2022-10-16T12:44:31;2.35;;;1.30;;
64188;SDS011;50493;50.970;10.082;2022-10-16T12:46:57;1.45;;;1.23;;
64188;SDS011;50493;50.970;10.082;2022-10-16T12:49:29;1.88;;;1.30;;
64188;SDS011;50493;50.970;10.082;2022-10-16T12:51:56;1.33;;;1.10;;
64188;SDS011;50493;50.970;10.082;2022-10-16T12:54:24;1.67;;;1.20;;
64188;SDS011;50493;50.970;10.082;2022-10-16T12:56:56;2.03;;;1.10;;
64188;SDS011;50493;50.970;10.082;2022-10-16T12:59:35;4.90;;;0.85;;
64188;SDS011;50493;50.970;10.082;2022-10-16T13:02:13;0.93;;;0.70;;
64188;SDS011;50493;50.970;10.082;2022-10-16T13:05:01;1.05;;;0.73;;
64188;SDS011;50493;50.970;10.082;2022-10-16T13:07:43;1.40;;;1.10;;
64188;SDS011;50493;50.970;10.082;2022-10-16T13:10:19;1.80;;;0.80;;
64188;SDS011;50493;50.970;10.082;2022-10-16T13:13:00;1.80;;;0.90;;
64188;SDS011;50493;50.970;10.082;2022-10-16T13:15:41;3.70;;;0.90;;
64188;SDS011;50493;50.970;10.082;2022-10-16T13:18:19;1.15;;;1.05;;
64188;SDS011;50493;50.970;10.082;2022-10-16T13:20:56;2.65;;;0.90;;
64188;SDS011;50493;50.970;10.082;2022-10-16T13:23:31;2.08;;;0.90;;
64188;SDS011;50493;50.970;10.082;2022-10-16T13:26:06;2.03;;;1.00;;
64188;SDS011;50493;50.970;10.082;2022-10-16T13:28:43;1.15;;;1.00;;
64188;SDS011;50493;50.970;10.082;2022-10-16T13:31:10;2.17;;;1.08;;
64188;SDS011;50493;50.970;10.082;2022-10-16T13:33:41;2.80;;;1.00;;
64188;SDS011;50493;50.970;10.082;2022-10-16T13:38:44;2.47;;;1.10;;
64188;SDS011;50493;50.970;10.082;2022-10-16T13:41:13;1.45;;;1.00;;
64188;SDS011;50493;50.970;10.082;2022-10-16T13:43:40;1.02;;;0.90;;
64188;SDS011;50493;50.970;10.082;2022-10-16T13:46:12;1.60;;;1.10;;
64188;SDS011;50493;50.970;10.082;2022-10-16T13:48:38;1.20;;;1.10;;
64188;SDS011;50493;50.970;10.082;2022-10-16T13:51:05;4.32;;;1.27;;
64188;SDS011;50493;50.970;10.082;2022-10-16T13:53:36;1.20;;;1.10;;
64188;SDS011;50493;50.970;10.082;2022-10-16T13:56:03;2.72;;;1.10;;
64188;SDS011;50493;50.970;10.082;2022-10-16T13:58:29;1.63;;;1.20;;
64188;SDS011;50493;50.970;10.082;2022-10-16T14:00:57;2.22;;;1.00;;
64188;SDS011;50493;50.970;10.082;2022-10-16T14:03:25;2.53;;;1.20;;
64188;SDS011;50493;50.970;10.082;2022-10-16T14:05:52;1.58;;;1.33;;
64188;SDS011;50493;50.970;10.082;2022-10-16T14:08:20;1.30;;;1.17;;
64188;SDS011;50493;50.970;10.082;2022-10-16T14:10:47;3.83;;;1.33;;
64188;SDS011;50493;50.970;10.082;2022-10-16T14:13:16;3.33;;;1.40;;
64188;SDS011;50493;50.970;10.082;2022-10-16T14:15:45;3.35;;;1.50;;
64188;SDS011;50493;50.970;10.082;2022-10-16T14:18:15;1.88;;;1.38;;
64188;SDS011;50493;50.970;10.082;2022-10-16T14:20:44;1.42;;;1.27;;
64188;SDS011;50493;50.970;10.082;2022-10-16T14:23:19;1.80;;;1.60;;
64188;SDS011;50493;50.970;10.082;2022-10-16T14:25:46;2.30;;;1.23;;
64188;SDS011;50493;50.970;10.082;2022-10-16T14:28:14;2.67;;;1.30;;
64188;SDS011;50493;50.970;10.082;2022-10-16T14:30:49;1.55;;;1.25;;
64188;SDS011;50493;50.970;10.082;2022-10-16T14:33:21;2.25;;;1.27;;
64188;SDS011;50493;50.970;10.082;2022-10-16T14:35:58;1.65;;;1.20;;
64188;SDS011;50493;50.970;10.082;2022-10-16T14:38:26;1.48;;;1.23;;
64188;SDS011;50493;50.970;10.082;2022-10-16T14:40:52;1.48;;;1.20;;
64188;SDS011;50493;50.970;10.082;2022-10-16T14:43:20;1.52;;;1.30;;
64188;SDS011;50493;50.970;10.082;2022-10-16T14:45:50;1.95;;;1.10;;
64188;SDS011;50493;50.970;10.082;2022-10-16T14:48:17;1.85;;;1.35;;